sensor_id;sensor_type;location;lat;lon;timestamp;P1;durP1;ratioP1;P2;durP2;ratioP2
21183;SDS011;18176;49.502;11.754;2022-09-09T00:02:28;3.40;;;1.70;;
21183;SDS011;18176;49.502;11.754;2022-09-09T00:10:32;3.90;;;2.00;;
21183;SDS011;18176;49.502;11.754;2022-09-09T00:14:51;6.70;;;2.30;;
21183;SDS011;18176;49.502;11.754;2022-09-09T00:19:07;7.23;;;2.10;;
21183;SDS011;18176;49.502;11.754;2022-09-09T00:23:27;4.27;;;1.97;;
21183;SDS011;18176;49.502;11.754;2022-09-09T00:27:34;2.20;;;1.77;;
21183;SDS011;18176;49.502;11.754;2022-09-09T00:31:41;6.13;;;1.70;;
21183;SDS011;18176;49.502;11.754;2022-09-09T00:35:39;3.43;;;1.60;;
21183;SDS011;18176;49.502;11.754;2022-09-09T00:39:46;2.93;;;1.70;;
21183;SDS011;18176;49.502;11.754;2022-09-09T00:44:32;1.67;;;1.53;;
21183;SDS011;18176;49.502;11.754;2022-09-09T00:48:58;2.47;;;1.60;;
21183;SDS011;18176;49.502;11.754;2022-09-09T00:57:55;3.47;;;1.63;;
21183;SDS011;18176;49.502;11.754;2022-09-09T01:01:52;2.70;;;1.77;;
21183;SDS011;18176;49.502;11.754;2022-09-09T01:10:00;1.90;;;1.70;;
21183;SDS011;18176;49.502;11.754;2022-09-09T01:14:16;3.10;;;1.60;;
21183;SDS011;18176;49.502;11.754;2022-09-09T01:18:43;3.57;;;1.50;;
21183;SDS011;18176;49.502;11.754;2022-09-09T01:23:07;7.83;;;1.87;;
21183;SDS011;18176;49.502;11.754;2022-09-09T01:27:49;2.50;;;1.70;;
21183;SDS011;18176;49.502;11.754;2022-09-09T01:31:55;5.30;;;1.60;;
21183;SDS011;18176;49.502;11.754;2022-09-09T01:40:20;6.40;;;2.00;;
21183;SDS011;18176;49.502;11.754;2022-09-09T01:44:18;4.33;;;1.90;;
21183;SDS011;18176;49.502;11.754;2022-09-09T01:48:17;2.13;;;1.70;;
21183;SDS011;18176;49.502;11.754;2022-09-09T01:52:21;3.00;;;1.80;;
21183;SDS011;18176;49.502;11.754;2022-09-09T02:00:30;4.40;;;2.20;;
21183;SDS011;18176;49.502;11.754;2022-09-09T02:04:40;5.53;;;1.90;;
21183;SDS011;18176;49.502;11.754;2022-09-09T02:08:52;3.57;;;1.70;;
21183;SDS011;18176;49.502;11.754;2022-09-09T02:13:13;4.10;;;2.07;;
21183;SDS011;18176;49.502;11.754;2022-09-09T02:17:15;3.90;;;1.97;;
21183;SDS011;18176;49.502;11.754;2022-09-09T02:21:36;4.57;;;2.10;;
21183;SDS011;18176;49.502;11.754;2022-09-09T02:25:33;4.17;;;2.20;;
21183;SDS011;18176;49.502;11.754;2022-09-09T02:29:44;3.17;;;1.90;;
21183;SDS011;18176;49.502;11.754;2022-09-09T02:33:47;3.63;;;2.20;;
21183;SDS011;18176;49.502;11.754;2022-09-09T02:37:55;7.77;;;2.07;;
21183;SDS011;18176;49.502;11.754;2022-09-09T02:41:58;3.80;;;1.80;;
21183;SDS011;18176;49.502;11.754;2022-09-09T02:46:08;5.30;;;2.00;;
21183;SDS011;18176;49.502;11.754;2022-09-09T02:50:42;3.20;;;2.10;;
21183;SDS011;18176;49.502;11.754;2022-09-09T02:54:59;3.37;;;1.90;;
21183;SDS011;18176;49.502;11.754;2022-09-09T02:59:15;3.83;;;2.00;;
21183;SDS011;18176;49.502;11.754;2022-09-09T03:03:14;4.67;;;2.20;;
21183;SDS011;18176;49.502;11.754;2022-09-09T03:07:16;4.43;;;2.27;;
21183;SDS011;18176;49.502;11.754;2022-09-09T03:11:16;3.50;;;2.10;;
21183;SDS011;18176;49.502;11.754;2022-09-09T03:15:14;6.93;;;2.20;;
21183;SDS011;18176;49.502;11.754;2022-09-09T03:19:11;3.53;;;1.80;;
21183;SDS011;18176;49.502;11.754;2022-09-09T03:23:10;2.70;;;2.00;;
21183;SDS011;18176;49.502;11.754;2022-09-09T03:27:12;5.17;;;2.33;;
21183;SDS011;18176;49.502;11.754;2022-09-09T03:31:10;7.77;;;2.20;;
21183;SDS011;18176;49.502;11.754;2022-09-09T03:35:10;7.07;;;2.23;;
21183;SDS011;18176;49.502;11.754;2022-09-09T03:39:07;5.33;;;2.53;;
21183;SDS011;18176;49.502;11.754;2022-09-09T03:43:04;9.17;;;2.80;;
21183;SDS011;18176;49.502;11.754;2022-09-09T03:47:02;3.83;;;2.40;;
21183;SDS011;18176;49.502;11.754;2022-09-09T03:50:59;6.83;;;2.37;;
21183;SDS011;18176;49.502;11.754;2022-09-09T03:54:59;6.47;;;3.23;;
21183;SDS011;18176;49.502;11.754;2022-09-09T03:58:57;7.00;;;4.13;;
21183;SDS011;18176;49.502;11.754;2022-09-09T04:02:55;4.67;;;3.27;;
21183;SDS011;18176;49.502;11.754;2022-09-09T04:06:54;8.77;;;4.70;;
21183;SDS011;18176;49.502;11.754;2022-09-09T04:10:52;12.60;;;5.60;;
21183;SDS011;18176;49.502;11.754;2022-09-09T04:14:53;13.97;;;6.07;;
21183;SDS011;18176;49.502;11.754;2022-09-09T04:18:50;10.20;;;5.00;;
21183;SDS011;18176;49.502;11.754;2022-09-09T04:22:49;11.17;;;6.53;;
21183;SDS011;18176;49.502;11.754;2022-09-09T04:26:46;14.90;;;7.73;;
21183;SDS011;18176;49.502;11.754;2022-09-09T04:30:43;18.83;;;9.17;;
21183;SDS011;18176;49.502;11.754;2022-09-09T04:34:41;19.40;;;8.73;;
21183;SDS011;18176;49.502;11.754;2022-09-09T04:38:39;17.83;;;9.33;;
21183;SDS011;18176;49.502;11.754;2022-09-09T04:42:36;18.83;;;11.40;;
21183;SDS011;18176;49.502;11.754;2022-09-09T04:46:33;17.33;;;12.57;;
21183;SDS011;18176;49.502;11.754;2022-09-09T04:50:31;17.67;;;13.60;;
21183;SDS011;18176;49.502;11.754;2022-09-09T04:54:28;14.73;;;12.57;;
21183;SDS011;18176;49.502;11.754;2022-09-09T04:58:26;15.70;;;12.57;;
21183;SDS011;18176;49.502;11.754;2022-09-09T05:02:23;14.50;;;12.53;;
21183;SDS011;18176;49.502;11.754;2022-09-09T05:06:26;13.10;;;11.70;;
21183;SDS011;18176;49.502;11.754;2022-09-09T05:10:27;14.37;;;12.17;;
21183;SDS011;18176;49.502;11.754;2022-09-09T05:14:25;16.47;;;11.63;;
21183;SDS011;18176;49.502;11.754;2022-09-09T05:18:23;14.73;;;11.50;;
21183;SDS011;18176;49.502;11.754;2022-09-09T05:22:20;14.53;;;11.50;;
21183;SDS011;18176;49.502;11.754;2022-09-09T05:26:22;15.53;;;12.20;;
21183;SDS011;18176;49.502;11.754;2022-09-09T05:30:21;16.73;;;12.53;;
21183;SDS011;18176;49.502;11.754;2022-09-09T05:34:22;16.43;;;13.13;;
21183;SDS011;18176;49.502;11.754;2022-09-09T05:38:20;17.23;;;13.87;;
21183;SDS011;18176;49.502;11.754;2022-09-09T05:42:23;18.00;;;14.20;;
21183;SDS011;18176;49.502;11.754;2022-09-09T05:46:22;19.83;;;14.63;;
21183;SDS011;18176;49.502;11.754;2022-09-09T05:50:22;20.20;;;14.60;;
21183;SDS011;18176;49.502;11.754;2022-09-09T05:54:25;19.20;;;14.43;;
21183;SDS011;18176;49.502;11.754;2022-09-09T05:58:23;21.23;;;14.83;;
21183;SDS011;18176;49.502;11.754;2022-09-09T06:02:21;17.47;;;13.77;;
21183;SDS011;18176;49.502;11.754;2022-09-09T06:06:19;19.87;;;14.03;;
21183;SDS011;18176;49.502;11.754;2022-09-09T06:10:20;20.50;;;14.07;;
21183;SDS011;18176;49.502;11.754;2022-09-09T06:14:18;18.05;;;13.50;;
21183;SDS011;18176;49.502;11.754;2022-09-09T06:18:17;20.48;;;13.48;;
21183;SDS011;18176;49.502;11.754;2022-09-09T06:22:15;16.90;;;13.30;;
21183;SDS011;18176;49.502;11.754;2022-09-09T06:26:14;18.40;;;12.70;;
21183;SDS011;18176;49.502;11.754;2022-09-09T06:30:24;13.77;;;12.07;;
21183;SDS011;18176;49.502;11.754;2022-09-09T06:34:21;18.98;;;12.05;;
21183;SDS011;18176;49.502;11.754;2022-09-09T06:38:23;14.75;;;12.25;;
21183;SDS011;18176;49.502;11.754;2022-09-09T06:42:22;18.15;;;13.35;;
21183;SDS011;18176;49.502;11.754;2022-09-09T06:46:27;16.10;;;12.87;;
21183;SDS011;18176;49.502;11.754;2022-09-09T06:50:29;21.97;;;13.53;;
21183;SDS011;18176;49.502;11.754;2022-09-09T06:54:26;17.58;;;11.88;;
21183;SDS011;18176;49.502;11.754;2022-09-09T06:58:25;16.77;;;12.32;;
21183;SDS011;18176;49.502;11.754;2022-09-09T07:02:23;15.00;;;11.55;;
21183;SDS011;18176;49.502;11.754;2022-09-09T07:06:22;17.58;;;11.15;;
21183;SDS011;18176;49.502;11.754;2022-09-09T07:10:22;15.38;;;10.75;;
21183;SDS011;18176;49.502;11.754;2022-09-09T07:14:20;12.18;;;9.50;;
21183;SDS011;18176;49.502;11.754;2022-09-09T07:18:28;12.73;;;9.50;;
21183;SDS011;18176;49.502;11.754;2022-09-09T07:22:25;14.00;;;9.35;;
21183;SDS011;18176;49.502;11.754;2022-09-09T07:26:26;11.88;;;9.60;;
21183;SDS011;18176;49.502;11.754;2022-09-09T07:30:27;13.98;;;10.50;;
21183;SDS011;18176;49.502;11.754;2022-09-09T07:34:27;14.65;;;10.95;;
21183;SDS011;18176;49.502;11.754;2022-09-09T07:38:24;16.58;;;10.50;;
21183;SDS011;18176;49.502;11.754;2022-09-09T07:42:24;13.82;;;10.20;;
21183;SDS011;18176;49.502;11.754;2022-09-09T07:46:22;13.35;;;9.70;;
21183;SDS011;18176;49.502;11.754;2022-09-09T07:50:22;16.02;;;10.75;;
21183;SDS011;18176;49.502;11.754;2022-09-09T07:54:20;13.05;;;10.20;;
21183;SDS011;18176;49.502;11.754;2022-09-09T07:58:21;13.93;;;9.93;;
21183;SDS011;18176;49.502;11.754;2022-09-09T08:02:18;11.02;;;8.98;;
21183;SDS011;18176;49.502;11.754;2022-09-09T08:06:16;12.68;;;10.40;;
21183;SDS011;18176;49.502;11.754;2022-09-09T08:10:13;23.17;;;12.40;;
21183;SDS011;18176;49.502;11.754;2022-09-09T08:14:14;17.60;;;12.52;;
21183;SDS011;18176;49.502;11.754;2022-09-09T08:18:11;18.08;;;12.63;;
21183;SDS011;18176;49.502;11.754;2022-09-09T08:22:08;16.88;;;12.07;;
21183;SDS011;18176;49.502;11.754;2022-09-09T08:26:10;13.73;;;9.93;;
21183;SDS011;18176;49.502;11.754;2022-09-09T08:30:11;12.23;;;9.38;;
21183;SDS011;18176;49.502;11.754;2022-09-09T08:34:09;15.98;;;9.43;;
21183;SDS011;18176;49.502;11.754;2022-09-09T08:38:07;10.98;;;7.88;;
21183;SDS011;18176;49.502;11.754;2022-09-09T08:42:49;11.35;;;7.65;;
21183;SDS011;18176;49.502;11.754;2022-09-09T08:51:02;9.60;;;6.57;;
21183;SDS011;18176;49.502;11.754;2022-09-09T08:55:14;6.95;;;5.47;;
21183;SDS011;18176;49.502;11.754;2022-09-09T08:59:44;5.95;;;4.40;;
21183;SDS011;18176;49.502;11.754;2022-09-09T09:04:00;4.95;;;4.13;;
21183;SDS011;18176;49.502;11.754;2022-09-09T09:12:21;5.55;;;3.55;;
21183;SDS011;18176;49.502;11.754;2022-09-09T09:21:00;6.00;;;3.78;;
21183;SDS011;18176;49.502;11.754;2022-09-09T09:25:23;4.82;;;2.70;;
21183;SDS011;18176;49.502;11.754;2022-09-09T09:29:30;2.92;;;2.70;;
21183;SDS011;18176;49.502;11.754;2022-09-09T09:37:37;3.30;;;2.40;;
21183;SDS011;18176;49.502;11.754;2022-09-09T09:42:07;4.45;;;2.60;;
21183;SDS011;18176;49.502;11.754;2022-09-09T09:46:19;4.63;;;2.15;;
21183;SDS011;18176;49.502;11.754;2022-09-09T09:50:29;2.55;;;1.88;;
21183;SDS011;18176;49.502;11.754;2022-09-09T09:54:29;3.63;;;1.92;;
21183;SDS011;18176;49.502;11.754;2022-09-09T09:58:53;3.47;;;2.30;;
21183;SDS011;18176;49.502;11.754;2022-09-09T10:02:59;5.07;;;2.15;;
21183;SDS011;18176;49.502;11.754;2022-09-09T10:07:09;5.07;;;1.88;;
21183;SDS011;18176;49.502;11.754;2022-09-09T10:19:36;5.20;;;1.88;;
21183;SDS011;18176;49.502;11.754;2022-09-09T10:28:20;3.35;;;1.60;;
21183;SDS011;18176;49.502;11.754;2022-09-09T10:36:58;2.08;;;1.10;;
21183;SDS011;18176;49.502;11.754;2022-09-09T10:45:09;6.35;;;1.40;;
21183;SDS011;18176;49.502;11.754;2022-09-09T10:53:51;4.25;;;1.23;;
21183;SDS011;18176;49.502;11.754;2022-09-09T10:57:56;5.30;;;1.65;;
21183;SDS011;18176;49.502;11.754;2022-09-09T11:01:57;4.30;;;1.50;;
21183;SDS011;18176;49.502;11.754;2022-09-09T11:06:17;2.42;;;1.40;;
21183;SDS011;18176;49.502;11.754;2022-09-09T11:10:22;3.22;;;1.27;;
21183;SDS011;18176;49.502;11.754;2022-09-09T11:14:45;2.38;;;1.15;;
21183;SDS011;18176;49.502;11.754;2022-09-09T11:19:16;2.05;;;1.13;;
21183;SDS011;18176;49.502;11.754;2022-09-09T11:23:28;3.65;;;1.42;;
21183;SDS011;18176;49.502;11.754;2022-09-09T11:32:02;2.97;;;1.30;;
21183;SDS011;18176;49.502;11.754;2022-09-09T11:40:59;4.55;;;1.35;;
21183;SDS011;18176;49.502;11.754;2022-09-09T11:45:09;3.78;;;1.50;;
21183;SDS011;18176;49.502;11.754;2022-09-09T11:49:29;3.85;;;1.33;;
21183;SDS011;18176;49.502;11.754;2022-09-09T11:53:47;4.50;;;1.30;;
21183;SDS011;18176;49.502;11.754;2022-09-09T11:57:57;3.03;;;1.35;;
21183;SDS011;18176;49.502;11.754;2022-09-09T12:02:13;2.15;;;1.27;;
21183;SDS011;18176;49.502;11.754;2022-09-09T12:06:25;1.23;;;0.90;;
21183;SDS011;18176;49.502;11.754;2022-09-09T12:10:30;3.03;;;1.33;;
21183;SDS011;18176;49.502;11.754;2022-09-09T12:14:36;3.53;;;1.60;;
21183;SDS011;18176;49.502;11.754;2022-09-09T12:18:50;1.52;;;1.05;;
21183;SDS011;18176;49.502;11.754;2022-09-09T12:27:34;5.45;;;1.25;;
21183;SDS011;18176;49.502;11.754;2022-09-09T12:31:46;4.40;;;1.58;;
21183;SDS011;18176;49.502;11.754;2022-09-09T12:35:57;3.50;;;1.15;;
21183;SDS011;18176;49.502;11.754;2022-09-09T12:39:57;3.35;;;1.25;;
21183;SDS011;18176;49.502;11.754;2022-09-09T12:44:09;3.47;;;0.75;;
21183;SDS011;18176;49.502;11.754;2022-09-09T12:48:07;2.75;;;1.00;;
21183;SDS011;18176;49.502;11.754;2022-09-09T12:52:14;2.03;;;1.00;;
21183;SDS011;18176;49.502;11.754;2022-09-09T12:56:24;1.98;;;0.80;;
21183;SDS011;18176;49.502;11.754;2022-09-09T13:00:29;4.30;;;0.90;;
21183;SDS011;18176;49.502;11.754;2022-09-09T13:04:26;2.20;;;0.80;;
21183;SDS011;18176;49.502;11.754;2022-09-09T13:08:26;2.58;;;1.00;;
21183;SDS011;18176;49.502;11.754;2022-09-09T13:12:23;3.97;;;0.82;;
21183;SDS011;18176;49.502;11.754;2022-09-09T13:16:31;3.47;;;0.80;;
21183;SDS011;18176;49.502;11.754;2022-09-09T13:20:37;2.33;;;0.82;;
21183;SDS011;18176;49.502;11.754;2022-09-09T13:24:36;1.95;;;0.80;;
21183;SDS011;18176;49.502;11.754;2022-09-09T13:28:33;3.28;;;0.80;;
21183;SDS011;18176;49.502;11.754;2022-09-09T13:32:31;3.30;;;0.80;;
21183;SDS011;18176;49.502;11.754;2022-09-09T13:36:31;1.92;;;0.82;;
21183;SDS011;18176;49.502;11.754;2022-09-09T13:40:31;2.83;;;1.08;;
21183;SDS011;18176;49.502;11.754;2022-09-09T13:44:38;8.30;;;0.88;;
21183;SDS011;18176;49.502;11.754;2022-09-09T13:48:38;3.53;;;0.80;;
21183;SDS011;18176;49.502;11.754;2022-09-09T13:52:37;1.92;;;0.85;;
21183;SDS011;18176;49.502;11.754;2022-09-09T13:56:35;5.93;;;1.60;;
21183;SDS011;18176;49.502;11.754;2022-09-09T14:00:34;16.25;;;2.85;;
21183;SDS011;18176;49.502;11.754;2022-09-09T14:04:32;8.75;;;1.83;;
21183;SDS011;18176;49.502;11.754;2022-09-09T14:08:31;6.63;;;1.27;;
21183;SDS011;18176;49.502;11.754;2022-09-09T14:12:33;9.52;;;1.65;;
21183;SDS011;18176;49.502;11.754;2022-09-09T14:16:31;6.43;;;1.30;;
21183;SDS011;18176;49.502;11.754;2022-09-09T14:20:29;3.22;;;1.05;;
21183;SDS011;18176;49.502;11.754;2022-09-09T14:24:26;6.57;;;1.33;;
21183;SDS011;18176;49.502;11.754;2022-09-09T14:28:24;7.45;;;1.60;;
21183;SDS011;18176;49.502;11.754;2022-09-09T14:32:41;17.75;;;2.42;;
21183;SDS011;18176;49.502;11.754;2022-09-09T14:36:38;15.07;;;2.70;;
21183;SDS011;18176;49.502;11.754;2022-09-09T14:40:37;15.40;;;3.23;;
21183;SDS011;18176;49.502;11.754;2022-09-09T14:44:35;12.47;;;2.20;;
21183;SDS011;18176;49.502;11.754;2022-09-09T14:48:32;5.30;;;2.00;;
21183;SDS011;18176;49.502;11.754;2022-09-09T14:52:30;8.83;;;3.30;;
21183;SDS011;18176;49.502;11.754;2022-09-09T14:56:28;13.77;;;4.50;;
21183;SDS011;18176;49.502;11.754;2022-09-09T15:00:28;10.67;;;3.80;;
21183;SDS011;18176;49.502;11.754;2022-09-09T15:09:14;8.03;;;2.67;;
21183;SDS011;18176;49.502;11.754;2022-09-09T15:13:12;9.47;;;2.83;;
21183;SDS011;18176;49.502;11.754;2022-09-09T15:17:13;12.77;;;3.27;;
21183;SDS011;18176;49.502;11.754;2022-09-09T15:21:11;10.20;;;3.70;;
21183;SDS011;18176;49.502;11.754;2022-09-09T15:25:10;5.80;;;2.92;;
21183;SDS011;18176;49.502;11.754;2022-09-09T15:29:08;4.43;;;1.67;;
21183;SDS011;18176;49.502;11.754;2022-09-09T15:33:07;4.22;;;1.17;;
21183;SDS011;18176;49.502;11.754;2022-09-09T15:37:09;5.28;;;2.20;;
21183;SDS011;18176;49.502;11.754;2022-09-09T15:41:09;5.10;;;1.60;;
21183;SDS011;18176;49.502;11.754;2022-09-09T15:45:08;4.45;;;1.70;;
21183;SDS011;18176;49.502;11.754;2022-09-09T15:53:06;7.78;;;3.33;;
21183;SDS011;18176;49.502;11.754;2022-09-09T15:57:04;8.48;;;3.30;;
21183;SDS011;18176;49.502;11.754;2022-09-09T16:01:05;6.82;;;2.42;;
21183;SDS011;18176;49.502;11.754;2022-09-09T16:05:05;4.68;;;2.45;;
21183;SDS011;18176;49.502;11.754;2022-09-09T16:09:03;6.95;;;2.63;;
21183;SDS011;18176;49.502;11.754;2022-09-09T16:13:03;7.70;;;2.65;;
21183;SDS011;18176;49.502;11.754;2022-09-09T16:17:00;6.15;;;2.10;;
21183;SDS011;18176;49.502;11.754;2022-09-09T16:20:58;7.35;;;2.38;;
21183;SDS011;18176;49.502;11.754;2022-09-09T16:24:56;5.05;;;2.08;;
21183;SDS011;18176;49.502;11.754;2022-09-09T16:28:53;5.65;;;1.80;;
21183;SDS011;18176;49.502;11.754;2022-09-09T16:32:50;5.05;;;1.95;;
21183;SDS011;18176;49.502;11.754;2022-09-09T16:36:48;6.80;;;1.95;;
21183;SDS011;18176;49.502;11.754;2022-09-09T16:40:45;6.65;;;1.80;;
21183;SDS011;18176;49.502;11.754;2022-09-09T16:44:42;5.60;;;1.65;;
21183;SDS011;18176;49.502;11.754;2022-09-09T16:48:39;5.68;;;1.33;;
21183;SDS011;18176;49.502;11.754;2022-09-09T16:52:36;2.80;;;1.33;;
21183;SDS011;18176;49.502;11.754;2022-09-09T16:56:34;4.97;;;1.50;;
21183;SDS011;18176;49.502;11.754;2022-09-09T17:00:34;3.20;;;1.10;;
21183;SDS011;18176;49.502;11.754;2022-09-09T17:04:31;4.55;;;1.40;;
21183;SDS011;18176;49.502;11.754;2022-09-09T17:08:29;4.03;;;1.33;;
21183;SDS011;18176;49.502;11.754;2022-09-09T17:12:27;3.05;;;1.08;;
21183;SDS011;18176;49.502;11.754;2022-09-09T17:16:25;3.40;;;1.40;;
21183;SDS011;18176;49.502;11.754;2022-09-09T17:20:26;4.40;;;2.05;;
21183;SDS011;18176;49.502;11.754;2022-09-09T17:24:40;8.98;;;3.50;;
21183;SDS011;18176;49.502;11.754;2022-09-09T17:28:38;5.65;;;2.75;;
21183;SDS011;18176;49.502;11.754;2022-09-09T17:32:39;7.57;;;3.25;;
21183;SDS011;18176;49.502;11.754;2022-09-09T17:36:36;7.70;;;3.55;;
21183;SDS011;18176;49.502;11.754;2022-09-09T17:40:34;7.10;;;3.28;;
21183;SDS011;18176;49.502;11.754;2022-09-09T17:44:31;6.82;;;3.40;;
21183;SDS011;18176;49.502;11.754;2022-09-09T17:48:29;12.27;;;3.60;;
21183;SDS011;18176;49.502;11.754;2022-09-09T17:52:26;13.25;;;3.90;;
21183;SDS011;18176;49.502;11.754;2022-09-09T17:56:25;9.60;;;3.90;;
21183;SDS011;18176;49.502;11.754;2022-09-09T18:00:32;14.32;;;4.68;;
21183;SDS011;18176;49.502;11.754;2022-09-09T18:04:29;9.93;;;3.65;;
21183;SDS011;18176;49.502;11.754;2022-09-09T18:08:27;9.90;;;3.60;;
21183;SDS011;18176;49.502;11.754;2022-09-09T18:12:31;7.23;;;3.03;;
21183;SDS011;18176;49.502;11.754;2022-09-09T18:16:29;7.37;;;2.73;;
21183;SDS011;18176;49.502;11.754;2022-09-09T18:20:31;8.10;;;2.77;;
21183;SDS011;18176;49.502;11.754;2022-09-09T18:24:29;6.17;;;2.50;;
21183;SDS011;18176;49.502;11.754;2022-09-09T18:28:26;7.07;;;2.50;;
21183;SDS011;18176;49.502;11.754;2022-09-09T18:32:24;8.33;;;2.70;;
21183;SDS011;18176;49.502;11.754;2022-09-09T18:36:23;6.40;;;2.60;;
21183;SDS011;18176;49.502;11.754;2022-09-09T18:40:30;7.67;;;2.10;;
21183;SDS011;18176;49.502;11.754;2022-09-09T18:44:29;5.60;;;2.00;;
21183;SDS011;18176;49.502;11.754;2022-09-09T18:48:31;5.00;;;2.50;;
21183;SDS011;18176;49.502;11.754;2022-09-09T18:52:29;6.93;;;2.57;;
21183;SDS011;18176;49.502;11.754;2022-09-09T18:56:26;6.40;;;2.63;;
21183;SDS011;18176;49.502;11.754;2022-09-09T19:00:25;5.83;;;2.30;;
21183;SDS011;18176;49.502;11.754;2022-09-09T19:31:13;2.63;;;1.90;;
21183;SDS011;18176;49.502;11.754;2022-09-09T19:57:14;7.53;;;2.30;;
21183;SDS011;18176;49.502;11.754;2022-09-09T20:01:12;3.40;;;1.93;;
21183;SDS011;18176;49.502;11.754;2022-09-09T20:05:12;6.20;;;1.80;;
21183;SDS011;18176;49.502;11.754;2022-09-09T20:09:10;3.13;;;1.60;;
21183;SDS011;18176;49.502;11.754;2022-09-09T20:13:12;4.37;;;1.90;;
21183;SDS011;18176;49.502;11.754;2022-09-09T20:17:09;2.80;;;1.30;;
21183;SDS011;18176;49.502;11.754;2022-09-09T20:21:17;4.67;;;1.80;;
21183;SDS011;18176;49.502;11.754;2022-09-09T20:25:29;3.30;;;1.50;;
21183;SDS011;18176;49.502;11.754;2022-09-09T20:29:26;3.73;;;2.00;;
21183;SDS011;18176;49.502;11.754;2022-09-09T20:33:23;5.90;;;1.70;;
21183;SDS011;18176;49.502;11.754;2022-09-09T20:37:20;3.77;;;1.90;;
21183;SDS011;18176;49.502;11.754;2022-09-09T20:41:19;3.10;;;1.63;;
21183;SDS011;18176;49.502;11.754;2022-09-09T21:00:49;8.33;;;2.00;;
21183;SDS011;18176;49.502;11.754;2022-09-09T21:04:46;4.07;;;1.83;;
21183;SDS011;18176;49.502;11.754;2022-09-09T21:08:44;3.53;;;1.40;;
21183;SDS011;18176;49.502;11.754;2022-09-09T21:12:42;3.10;;;1.30;;
21183;SDS011;18176;49.502;11.754;2022-09-09T21:16:40;2.43;;;1.30;;
21183;SDS011;18176;49.502;11.754;2022-09-09T21:20:37;3.97;;;1.60;;
21183;SDS011;18176;49.502;11.754;2022-09-09T21:24:34;2.93;;;1.07;;
21183;SDS011;18176;49.502;11.754;2022-09-09T21:28:31;3.60;;;1.00;;
21183;SDS011;18176;49.502;11.754;2022-09-09T21:32:29;3.00;;;0.90;;
21183;SDS011;18176;49.502;11.754;2022-09-09T21:36:27;1.87;;;0.80;;
21183;SDS011;18176;49.502;11.754;2022-09-09T21:40:24;1.40;;;0.80;;
21183;SDS011;18176;49.502;11.754;2022-09-09T21:44:21;1.70;;;0.57;;
21183;SDS011;18176;49.502;11.754;2022-09-09T21:48:19;2.70;;;0.80;;
21183;SDS011;18176;49.502;11.754;2022-09-09T21:52:16;2.93;;;0.80;;
21183;SDS011;18176;49.502;11.754;2022-09-09T21:56:14;0.90;;;0.60;;
21183;SDS011;18176;49.502;11.754;2022-09-09T22:00:13;1.97;;;0.77;;
21183;SDS011;18176;49.502;11.754;2022-09-09T22:04:13;4.50;;;0.90;;
21183;SDS011;18176;49.502;11.754;2022-09-09T22:08:11;3.37;;;0.77;;
21183;SDS011;18176;49.502;11.754;2022-09-09T22:12:11;5.80;;;0.90;;
21183;SDS011;18176;49.502;11.754;2022-09-09T22:16:09;2.00;;;0.90;;
21183;SDS011;18176;49.502;11.754;2022-09-09T22:20:09;1.73;;;0.80;;
21183;SDS011;18176;49.502;11.754;2022-09-09T22:24:07;1.97;;;0.77;;
21183;SDS011;18176;49.502;11.754;2022-09-09T22:28:08;4.53;;;0.80;;
21183;SDS011;18176;49.502;11.754;2022-09-09T22:32:05;4.07;;;1.03;;
21183;SDS011;18176;49.502;11.754;2022-09-09T22:36:02;3.83;;;1.03;;
21183;SDS011;18176;49.502;11.754;2022-09-09T22:40:00;5.50;;;1.00;;
21183;SDS011;18176;49.502;11.754;2022-09-09T22:43:57;5.90;;;0.80;;
21183;SDS011;18176;49.502;11.754;2022-09-09T22:47:54;3.10;;;1.07;;
21183;SDS011;18176;49.502;11.754;2022-09-09T22:51:52;2.90;;;1.20;;
21183;SDS011;18176;49.502;11.754;2022-09-09T22:55:53;5.10;;;1.10;;
21183;SDS011;18176;49.502;11.754;2022-09-09T22:59:55;2.47;;;1.10;;
21183;SDS011;18176;49.502;11.754;2022-09-09T23:03:53;3.40;;;0.93;;
21183;SDS011;18176;49.502;11.754;2022-09-09T23:07:57;2.80;;;1.10;;
21183;SDS011;18176;49.502;11.754;2022-09-09T23:11:54;3.57;;;1.40;;
21183;SDS011;18176;49.502;11.754;2022-09-09T23:15:53;2.07;;;1.27;;
21183;SDS011;18176;49.502;11.754;2022-09-09T23:19:50;2.40;;;1.10;;
21183;SDS011;18176;49.502;11.754;2022-09-09T23:23:50;3.27;;;0.90;;
21183;SDS011;18176;49.502;11.754;2022-09-09T23:27:52;3.43;;;1.00;;
21183;SDS011;18176;49.502;11.754;2022-09-09T23:31:49;3.33;;;1.17;;
21183;SDS011;18176;49.502;11.754;2022-09-09T23:35:46;3.37;;;1.10;;
21183;SDS011;18176;49.502;11.754;2022-09-09T23:39:43;1.10;;;0.90;;
21183;SDS011;18176;49.502;11.754;2022-09-09T23:43:41;5.60;;;1.30;;
21183;SDS011;18176;49.502;11.754;2022-09-09T23:47:40;2.87;;;1.30;;
21183;SDS011;18176;49.502;11.754;2022-09-09T23:51:37;7.43;;;1.40;;
21183;SDS011;18176;49.502;11.754;2022-09-09T23:55:34;4.87;;;1.33;;
21183;SDS011;18176;49.502;11.754;2022-09-09T23:59:31;6.53;;;1.97;;
